createdAt,value
2023-05-08T00:01:39.868Z,84.10
2023-05-08T00:04:10.159Z,84.40
2023-05-08T00:06:40.595Z,84.10
2023-05-08T00:09:10.741Z,85.10
2023-05-08T00:11:42.670Z,85.60
2023-05-08T00:14:12.857Z,86.00
2023-05-08T00:16:43.486Z,85.50
2023-05-08T00:19:13.653Z,85.60
2023-05-08T00:21:44.887Z,85.90
2023-05-08T00:24:15.703Z,85.80
2023-05-08T00:26:47.809Z,86.80
2023-05-08T00:29:17.987Z,87.90
2023-05-08T00:31:48.153Z,88.00
2023-05-08T00:34:18.502Z,87.30
2023-05-08T00:36:48.715Z,88.20
2023-05-08T00:39:18.899Z,88.10
2023-05-08T00:41:50.991Z,87.80
2023-05-08T00:44:21.328Z,87.00
2023-05-08T00:46:51.989Z,87.50
2023-05-08T00:49:22.668Z,87.90
2023-05-08T00:51:55.165Z,87.50
2023-05-08T00:54:25.756Z,88.00
2023-05-08T00:56:58.131Z,88.20
2023-05-08T00:59:29.718Z,88.70
2023-05-08T01:01:59.988Z,89.40
2023-05-08T01:04:32.394Z,89.60
2023-05-08T01:07:04.362Z,89.60
2023-05-08T01:09:34.682Z,89.50
2023-05-08T01:12:16.074Z,89.80
2023-05-08T01:14:59.473Z,90.00
2023-05-08T01:17:41.811Z,90.10
2023-05-08T01:20:29.273Z,90.20
2023-05-08T01:23:34.202Z,90.40
2023-05-08T01:26:53.110Z,90.40
2023-05-08T01:29:51.214Z,90.30
2023-05-08T01:32:27.529Z,90.40
2023-05-08T01:35:06.709Z,90.50
2023-05-08T01:37:42.750Z,90.80
2023-05-08T01:40:20.307Z,91.40
2023-05-08T01:42:55.201Z,91.80
2023-05-08T01:46:11.700Z,92.20
2023-05-08T01:49:03.416Z,92.50
2023-05-08T01:51:40.868Z,93.00
2023-05-08T01:54:15.681Z,93.40
2023-05-08T01:56:48.747Z,93.70
2023-05-08T01:59:24.425Z,94.30
2023-05-08T02:01:57.725Z,94.70
2023-05-08T02:04:30.719Z,95.40
2023-05-08T02:07:03.277Z,95.90
2023-05-08T02:09:36.415Z,96.40
2023-05-08T02:12:08.999Z,97.10
2023-05-08T02:14:40.285Z,97.80
2023-05-08T02:17:12.079Z,98.20
2023-05-08T02:19:45.469Z,98.70
2023-05-08T02:22:18.081Z,99.20
2023-05-08T02:24:49.233Z,99.60
2023-05-08T02:27:20.264Z,99.90
2023-05-08T02:29:51.490Z,99.90
2023-05-08T02:32:23.500Z,99.90
2023-05-08T02:35:03.066Z,99.90
2023-05-08T02:37:35.009Z,99.90
2023-05-08T02:40:07.109Z,99.90
2023-05-08T02:42:38.073Z,99.90
2023-05-08T02:45:09.580Z,99.90
2023-05-08T02:47:46.196Z,99.90
2023-05-08T02:50:22.810Z,99.90
2023-05-08T02:52:55.239Z,99.90
2023-05-08T02:55:41.665Z,99.90
2023-05-08T02:58:19.006Z,99.90
2023-05-08T03:00:57.828Z,99.90
2023-05-08T03:03:34.608Z,99.90
2023-05-08T03:06:12.327Z,99.90
2023-05-08T03:08:44.823Z,99.90
2023-05-08T03:11:18.901Z,99.90
2023-05-08T03:13:51.774Z,99.90
2023-05-08T03:16:25.623Z,99.90
2023-05-08T03:19:00.601Z,99.90
2023-05-08T03:21:34.320Z,99.90
2023-05-08T03:24:07.922Z,99.90
2023-05-08T03:26:39.056Z,99.90
2023-05-08T03:29:09.821Z,99.90
2023-05-08T03:31:41.086Z,99.90
2023-05-08T03:34:12.169Z,99.90
2023-05-08T03:36:44.604Z,99.90
2023-05-08T03:39:16.611Z,99.90
2023-05-08T03:41:48.721Z,99.90
2023-05-08T03:44:20.253Z,99.90
2023-05-08T03:46:52.045Z,99.90
2023-05-08T03:49:25.967Z,99.90
2023-05-08T03:51:58.732Z,99.90
2023-05-08T03:54:29.487Z,99.90
2023-05-08T03:56:59.688Z,99.90
2023-05-08T03:59:40.590Z,99.90
2023-05-08T04:02:19.985Z,99.90
2023-05-08T04:04:55.370Z,99.90
2023-05-08T04:07:32.161Z,99.90
2023-05-08T04:10:09.260Z,99.90
2023-05-08T04:12:47.531Z,99.90
2023-05-08T04:15:22.958Z,99.90
2023-05-08T04:17:56.074Z,99.90
2023-05-08T04:20:29.526Z,99.90
2023-05-08T04:23:02.224Z,99.90
2023-05-08T04:25:33.416Z,99.90
2023-05-08T04:28:04.216Z,99.90
2023-05-08T04:30:34.666Z,99.90
2023-05-08T04:33:07.291Z,99.90
2023-05-08T04:35:37.785Z,99.90
2023-05-08T04:38:09.548Z,99.90
2023-05-08T04:40:40.033Z,99.90
2023-05-08T04:43:10.276Z,99.90
2023-05-08T04:45:40.547Z,99.90
2023-05-08T04:48:10.618Z,99.90
2023-05-08T04:50:40.874Z,99.90
2023-05-08T04:53:12.594Z,99.90
2023-05-08T04:55:42.776Z,99.90
2023-05-08T04:58:14.396Z,99.90
2023-05-08T05:00:44.592Z,99.90
2023-05-08T05:03:15.333Z,99.90
2023-05-08T05:05:45.656Z,99.90
2023-05-08T05:08:17.394Z,99.90
2023-05-08T05:10:47.789Z,99.90
2023-05-08T05:13:17.990Z,99.90
2023-05-08T05:15:48.534Z,99.90
2023-05-08T05:18:18.692Z,99.90
2023-05-08T05:20:48.828Z,99.90
2023-05-08T05:23:20.602Z,99.90
2023-05-08T05:25:50.907Z,99.90
2023-05-08T05:28:21.343Z,99.90
2023-05-08T05:30:51.621Z,99.90
2023-05-08T05:33:21.813Z,99.90
2023-05-08T05:35:52.089Z,99.90
2023-05-08T05:38:23.826Z,99.90
2023-05-08T05:40:54.164Z,99.90
2023-05-08T05:43:24.388Z,99.90
2023-05-08T05:45:56.612Z,99.90
2023-05-08T05:48:26.681Z,99.90
2023-05-08T05:50:57.305Z,99.90
2023-05-08T05:53:29.101Z,99.90
2023-05-08T05:55:59.261Z,99.90
2023-05-08T05:58:30.498Z,99.90
2023-05-08T06:01:02.674Z,99.90
2023-05-08T06:03:33.338Z,99.90
2023-05-08T06:06:03.890Z,99.90
2023-05-08T06:08:35.886Z,99.90
2023-05-08T06:11:06.089Z,99.90
2023-05-08T06:13:36.266Z,99.90
2023-05-08T06:16:07.072Z,99.90
2023-05-08T06:18:37.448Z,99.90
2023-05-08T06:21:07.904Z,99.90
2023-05-08T06:23:39.853Z,99.90
2023-05-08T06:26:10.579Z,99.90
2023-05-08T06:28:40.856Z,99.90
2023-05-08T06:31:11.441Z,99.90
2023-05-08T06:33:41.629Z,99.90
2023-05-08T06:36:12.826Z,99.90
2023-05-08T06:38:44.476Z,99.90
2023-05-08T06:41:15.408Z,99.90
2023-05-08T06:43:45.764Z,99.90
2023-05-08T06:46:16.066Z,99.90
2023-05-08T06:48:46.856Z,99.90
2023-05-08T06:51:17.041Z,99.90
2023-05-08T06:53:48.764Z,99.90
2023-05-08T06:56:19.136Z,99.90
2023-05-08T06:58:57.115Z,99.90
2023-05-08T07:01:31.361Z,99.90
2023-05-08T07:04:01.853Z,99.90
2023-05-08T07:06:32.279Z,99.90
2023-05-08T07:09:04.171Z,99.90
2023-05-08T07:11:34.655Z,99.90
2023-05-08T07:14:04.824Z,99.90
2023-05-08T07:16:35.145Z,99.90
2023-05-08T07:19:05.445Z,99.90
2023-05-08T07:21:35.586Z,99.90
2023-05-08T07:24:08.938Z,99.90
2023-05-08T07:26:39.042Z,99.90
2023-05-08T07:29:09.292Z,99.90
2023-05-08T07:31:42.752Z,99.90
2023-05-08T07:34:13.046Z,99.90
2023-05-08T07:36:43.278Z,99.90
2023-05-08T07:39:14.986Z,99.90
2023-05-08T07:41:48.413Z,99.90
2023-05-08T07:44:19.782Z,99.90
2023-05-08T07:46:50.088Z,99.90
2023-05-08T07:49:20.471Z,99.90
2023-05-08T07:51:50.612Z,99.90
2023-05-08T07:54:22.670Z,99.90
2023-05-08T07:56:52.853Z,99.90
2023-05-08T07:59:22.989Z,99.90
2023-05-08T08:01:53.236Z,99.90
2023-05-08T08:04:23.914Z,99.90
2023-05-08T08:06:54.366Z,99.90
2023-05-08T08:09:26.321Z,99.90
2023-05-08T08:11:56.609Z,99.90
2023-05-08T08:14:26.660Z,99.90
2023-05-08T08:16:56.911Z,99.90
2023-05-08T08:19:30.190Z,99.90
2023-05-08T08:22:00.299Z,99.90
2023-05-08T08:24:32.702Z,99.90
2023-05-08T08:27:03.080Z,99.90
2023-05-08T08:29:33.273Z,99.90
2023-05-08T08:32:04.632Z,99.90
2023-05-08T08:34:36.884Z,99.90
2023-05-08T08:37:08.731Z,99.90
2023-05-08T08:39:40.419Z,99.90
2023-05-08T08:42:10.638Z,99.90
2023-05-08T08:44:40.755Z,99.90
2023-05-08T08:47:14.841Z,99.90
2023-05-08T08:49:49.758Z,99.90
2023-05-08T08:52:29.642Z,99.90
2023-05-08T08:55:05.377Z,99.90
2023-05-08T08:57:39.494Z,99.90
2023-05-08T09:00:11.721Z,99.90
2023-05-08T09:02:42.657Z,99.90
2023-05-08T09:05:14.043Z,99.90
2023-05-08T09:07:44.770Z,99.90
2023-05-08T09:10:17.412Z,99.90
2023-05-08T09:12:47.654Z,99.90
2023-05-08T09:15:18.047Z,99.90
2023-05-08T09:17:48.214Z,99.90
2023-05-08T09:20:18.756Z,99.90
2023-05-08T09:22:49.319Z,99.90
2023-05-08T09:25:21.755Z,99.90
2023-05-08T09:27:52.008Z,99.90
2023-05-08T09:30:22.075Z,99.90
2023-05-08T09:32:52.449Z,99.90
2023-05-08T09:35:22.513Z,99.90
2023-05-08T09:37:53.312Z,99.90
2023-05-08T09:40:27.080Z,99.90
2023-05-08T09:42:57.162Z,99.90
2023-05-08T09:45:32.258Z,99.90
2023-05-08T09:48:02.803Z,99.90
2023-05-08T09:50:34.144Z,99.90
2023-05-08T09:53:04.441Z,99.90
2023-05-08T09:55:49.743Z,99.90
2023-05-08T09:58:20.063Z,99.90
2023-05-08T10:00:50.247Z,99.90
2023-05-08T10:03:20.810Z,99.90
2023-05-08T10:05:51.005Z,99.90
2023-05-08T10:08:22.519Z,99.90
2023-05-08T10:10:54.197Z,99.90
2023-05-08T10:13:24.666Z,99.90
2023-05-08T10:15:58.553Z,99.90
2023-05-08T10:18:36.964Z,99.90
2023-05-08T10:21:09.388Z,99.90
2023-05-08T10:23:43.053Z,99.90
2023-05-08T10:26:22.329Z,99.90
2023-05-08T10:28:58.042Z,99.90
2023-05-08T10:31:30.389Z,99.90
2023-05-08T10:34:04.540Z,99.90
2023-05-08T10:36:35.045Z,99.90
2023-05-08T10:39:05.617Z,99.90
2023-05-08T10:41:39.701Z,99.90
2023-05-08T10:44:10.968Z,99.90
2023-05-08T10:46:49.663Z,99.90
2023-05-08T10:49:28.398Z,99.90
2023-05-08T10:52:12.092Z,99.90
2023-05-08T10:55:05.389Z,99.90
2023-05-08T10:57:37.791Z,99.90
2023-05-08T11:00:09.401Z,99.90
2023-05-08T11:02:39.650Z,99.90
2023-05-08T11:05:19.004Z,99.90
2023-05-08T11:07:59.482Z,99.90
2023-05-08T11:10:37.737Z,99.90
2023-05-08T11:13:11.067Z,99.90
2023-05-08T11:15:42.154Z,99.90
2023-05-08T11:18:13.081Z,99.90
2023-05-08T11:20:43.940Z,99.90
2023-05-08T11:23:26.693Z,99.90
2023-05-08T11:26:04.459Z,99.90
2023-05-08T11:28:39.813Z,99.90
2023-05-08T11:31:10.830Z,99.90
2023-05-08T11:33:41.868Z,99.90
2023-05-08T11:36:20.239Z,99.90
2023-05-08T11:39:09.993Z,99.40
2023-05-08T11:41:40.140Z,97.90
2023-05-08T11:44:21.976Z,97.30
2023-05-08T11:46:56.448Z,97.10
2023-05-08T11:49:29.701Z,96.50
2023-05-08T11:52:02.118Z,97.10
2023-05-08T11:54:33.632Z,96.40
2023-05-08T11:57:03.834Z,97.50
2023-05-08T11:59:39.648Z,98.20
2023-05-08T12:02:10.873Z,95.80
2023-05-08T12:04:48.356Z,96.30
2023-05-08T12:07:19.321Z,96.10
2023-05-08T12:09:49.981Z,95.70
2023-05-08T12:12:20.233Z,95.80
2023-05-08T12:14:54.335Z,94.60
2023-05-08T12:17:24.600Z,95.10
2023-05-08T12:19:59.817Z,94.20
2023-05-08T12:22:29.949Z,94.80
2023-05-08T12:25:00.724Z,94.50
2023-05-08T12:27:31.502Z,95.40
2023-05-08T12:30:03.616Z,94.10
2023-05-08T12:32:34.136Z,95.00
2023-05-08T12:35:04.607Z,94.30
2023-05-08T12:37:34.780Z,95.50
2023-05-08T12:40:04.940Z,94.80
2023-05-08T12:42:48.954Z,95.40
2023-05-08T12:45:26.230Z,94.40
2023-05-08T12:48:00.683Z,95.00
2023-05-08T12:50:33.447Z,93.20
2023-05-08T12:53:07.142Z,94.30
2023-05-08T12:55:39.423Z,93.10
2023-05-08T12:58:14.713Z,93.70
2023-05-08T13:00:49.307Z,92.80
2023-05-08T13:03:26.771Z,91.80
2023-05-08T13:05:58.144Z,92.40
2023-05-08T13:08:34.025Z,93.30
2023-05-08T13:11:05.884Z,91.80
2023-05-08T13:13:37.762Z,92.10
2023-05-08T13:16:10.443Z,92.50
2023-05-08T13:18:40.689Z,92.20
2023-05-08T13:21:11.076Z,91.70
2023-05-08T13:23:41.562Z,93.30
2023-05-08T13:26:12.201Z,91.20
2023-05-08T13:28:42.328Z,91.60
2023-05-08T13:31:14.048Z,91.40
2023-05-08T13:33:44.338Z,91.80
2023-05-08T13:36:14.440Z,91.10
2023-05-08T13:38:44.644Z,90.20
2023-05-08T13:41:14.936Z,90.40
2023-05-08T13:43:46.165Z,91.00
2023-05-08T13:46:18.186Z,90.70
2023-05-08T13:48:48.556Z,90.60
2023-05-08T13:51:18.718Z,90.90
2023-05-08T13:53:48.826Z,91.30
2023-05-08T13:56:18.895Z,90.50
2023-05-08T13:58:48.963Z,90.30
2023-05-08T14:01:26.564Z,88.80
2023-05-08T14:03:57.442Z,89.50
2023-05-08T14:06:27.754Z,86.10
2023-05-08T14:08:57.934Z,88.80
2023-05-08T14:11:27.972Z,89.30
2023-05-08T14:13:58.304Z,86.20
2023-05-08T14:16:30.711Z,87.60
2023-05-08T14:19:01.086Z,85.80
2023-05-08T14:21:31.569Z,85.80
2023-05-08T14:24:01.959Z,83.40
2023-05-08T14:26:32.617Z,86.00
2023-05-08T14:29:03.001Z,84.60
2023-05-08T14:31:34.852Z,83.00
2023-05-08T14:34:05.369Z,84.90
2023-05-08T14:36:35.572Z,85.10
2023-05-08T14:39:05.810Z,79.50
2023-05-08T14:41:36.397Z,81.10
2023-05-08T14:44:06.593Z,79.70
2023-05-08T14:46:38.317Z,81.00
2023-05-08T14:49:08.480Z,80.90
2023-05-08T14:51:38.806Z,82.50
2023-05-08T14:54:09.321Z,78.20
2023-05-08T14:56:47.006Z,82.40
2023-05-08T14:59:18.228Z,80.00
2023-05-08T15:01:50.047Z,80.00
2023-05-08T15:04:20.871Z,82.80
2023-05-08T15:06:51.071Z,76.60
2023-05-08T15:09:21.229Z,76.20
2023-05-08T15:11:51.357Z,78.90
2023-05-08T15:14:21.635Z,78.30
2023-05-08T15:16:53.319Z,79.90
2023-05-08T15:19:23.411Z,82.30
2023-05-08T15:21:53.535Z,78.50
2023-05-08T15:24:23.843Z,81.50
2023-05-08T15:26:54.215Z,80.40
2023-05-08T15:29:24.476Z,79.30
2023-05-08T15:31:56.201Z,75.10
2023-05-08T15:34:29.205Z,76.60
2023-05-08T15:37:02.639Z,75.00
2023-05-08T15:39:33.244Z,74.30
2023-05-08T15:42:05.296Z,79.40
2023-05-08T15:44:53.364Z,72.40
2023-05-08T15:47:27.795Z,73.60
2023-05-08T15:49:58.398Z,70.10
2023-05-08T15:52:28.556Z,68.10
2023-05-08T15:54:58.745Z,74.20
2023-05-08T15:57:29.147Z,72.90
2023-05-08T15:59:59.398Z,72.20
2023-05-08T16:02:31.147Z,70.90
2023-05-08T16:05:01.305Z,70.00
2023-05-08T16:07:31.381Z,69.90
2023-05-08T16:10:01.783Z,68.60
2023-05-08T16:12:32.092Z,67.30
2023-05-08T16:15:02.487Z,67.30
2023-05-08T16:17:35.820Z,68.30
2023-05-08T16:20:06.305Z,64.40
2023-05-08T16:22:36.421Z,62.20
2023-05-08T16:25:07.050Z,64.90
2023-05-08T16:27:37.629Z,63.20
2023-05-08T16:30:09.267Z,59.00
2023-05-08T16:32:41.162Z,59.20
2023-05-08T16:35:12.184Z,57.70
2023-05-08T16:37:42.677Z,58.20
2023-05-08T16:40:13.699Z,60.40
2023-05-08T16:42:43.842Z,58.60
2023-05-08T16:45:15.142Z,59.00
2023-05-08T16:47:47.211Z,59.40
2023-05-08T16:50:17.448Z,60.10
2023-05-08T16:52:47.556Z,57.80
2023-05-08T16:55:17.878Z,63.70
2023-05-08T16:57:48.196Z,61.70
2023-05-08T17:00:18.897Z,60.00
2023-05-08T17:02:51.327Z,59.30
2023-05-08T17:05:21.941Z,56.90
2023-05-08T17:07:52.696Z,55.20
2023-05-08T17:10:22.944Z,57.70
2023-05-08T17:12:54.091Z,63.60
2023-05-08T17:15:24.679Z,59.90
2023-05-08T17:17:56.705Z,60.00
2023-05-08T17:20:27.049Z,60.50
2023-05-08T17:22:57.410Z,59.80
2023-05-08T17:25:27.888Z,62.70
2023-05-08T17:27:58.449Z,59.60
2023-05-08T17:30:28.679Z,59.50
2023-05-08T17:33:00.540Z,61.00
2023-05-08T17:35:30.733Z,57.90
2023-05-08T17:38:00.914Z,59.00
2023-05-08T17:40:31.188Z,56.70
2023-05-08T17:43:01.645Z,58.00
2023-05-08T17:45:32.213Z,60.90
2023-05-08T17:48:04.345Z,59.30
2023-05-08T17:50:35.807Z,58.80
2023-05-08T17:53:05.958Z,59.20
2023-05-08T17:55:36.531Z,58.80
2023-05-08T17:58:06.823Z,59.30
2023-05-08T18:00:36.937Z,59.00
2023-05-08T18:03:09.045Z,59.00
2023-05-08T18:05:40.614Z,57.30
2023-05-08T18:08:10.737Z,57.80
2023-05-08T18:10:40.912Z,61.10
2023-05-08T18:13:11.244Z,57.40
2023-05-08T18:15:43.547Z,58.70
2023-05-08T18:18:15.296Z,56.90
2023-05-08T18:20:45.789Z,57.40
2023-05-08T18:23:16.074Z,56.70
2023-05-08T18:25:46.429Z,55.40
2023-05-08T18:28:16.560Z,54.90
2023-05-08T18:30:46.697Z,56.70
2023-05-08T18:33:18.412Z,57.00
2023-05-08T18:35:48.823Z,55.80
2023-05-08T18:38:19.694Z,55.70
2023-05-08T18:40:50.071Z,57.60
2023-05-08T18:43:20.229Z,54.70
2023-05-08T18:45:50.446Z,56.20
2023-05-08T18:48:22.212Z,54.50
2023-05-08T18:50:52.435Z,54.50
2023-05-08T18:53:22.705Z,54.10
2023-05-08T18:55:53.613Z,54.20
2023-05-08T18:58:23.760Z,53.70
2023-05-08T19:00:56.987Z,55.30
2023-05-08T19:03:28.873Z,54.90
2023-05-08T19:05:59.376Z,55.00
2023-05-08T19:08:29.589Z,53.70
2023-05-08T19:10:59.829Z,53.30
2023-05-08T19:13:30.020Z,53.10
2023-05-08T19:16:00.603Z,50.80
2023-05-08T19:18:32.915Z,52.70
2023-05-08T19:21:04.316Z,56.10
2023-05-08T19:23:34.346Z,53.10
2023-05-08T19:26:04.983Z,54.60
2023-05-08T19:28:35.973Z,53.20
2023-05-08T19:31:06.164Z,53.30
2023-05-08T19:33:37.954Z,53.20
2023-05-08T19:36:08.302Z,52.30
2023-05-08T19:38:40.711Z,53.60
2023-05-08T19:41:10.868Z,50.50
2023-05-08T19:43:41.213Z,52.50
2023-05-08T19:46:11.521Z,52.50
2023-05-08T19:48:43.538Z,50.70
2023-05-08T19:51:13.868Z,51.20
2023-05-08T19:53:44.348Z,51.40
2023-05-08T19:56:14.772Z,53.20
2023-05-08T19:58:44.886Z,51.50
2023-05-08T20:01:15.262Z,53.80
2023-05-08T20:03:47.086Z,49.70
2023-05-08T20:06:17.359Z,54.60
2023-05-08T20:08:47.538Z,50.40
2023-05-08T20:11:17.696Z,51.10
2023-05-08T20:13:48.214Z,52.40
2023-05-08T20:16:18.484Z,53.90
2023-05-08T20:18:50.721Z,51.60
2023-05-08T20:21:20.896Z,48.20
2023-05-08T20:23:51.054Z,47.40
2023-05-08T20:26:21.563Z,48.20
2023-05-08T20:28:51.741Z,50.10
2023-05-08T20:31:21.914Z,49.50
2023-05-08T20:33:53.633Z,49.80
2023-05-08T20:36:24.298Z,49.20
2023-05-08T20:38:54.376Z,48.90
2023-05-08T20:41:24.714Z,51.30
2023-05-08T20:43:54.882Z,50.00
2023-05-08T20:46:25.263Z,50.60
2023-05-08T20:48:57.092Z,50.70
2023-05-08T20:51:27.294Z,50.30
2023-05-08T20:53:57.455Z,50.20
2023-05-08T20:56:27.711Z,50.30
2023-05-08T20:58:57.847Z,50.00
2023-05-08T21:01:28.070Z,51.50
2023-05-08T21:03:59.797Z,50.50
2023-05-08T21:06:29.923Z,51.70
2023-05-08T21:09:00.223Z,51.90
2023-05-08T21:11:30.393Z,51.40
2023-05-08T21:14:00.511Z,50.30
2023-05-08T21:16:30.717Z,51.10
2023-05-08T21:19:02.447Z,49.90
2023-05-08T21:21:32.863Z,50.70
2023-05-08T21:24:03.429Z,52.30
2023-05-08T21:26:33.667Z,50.30
2023-05-08T21:29:04.910Z,51.70
2023-05-08T21:31:37.839Z,50.40
2023-05-08T21:34:09.680Z,50.70
2023-05-08T21:36:40.169Z,49.00
2023-05-08T21:39:10.624Z,49.40
2023-05-08T21:41:40.834Z,49.30
2023-05-08T21:44:12.178Z,48.90
2023-05-08T21:46:42.875Z,49.80
2023-05-08T21:49:14.728Z,50.30
2023-05-08T21:51:46.224Z,51.90
2023-05-08T21:54:16.381Z,51.00
2023-05-08T21:56:46.544Z,51.10
2023-05-08T21:59:16.826Z,53.40
2023-05-08T22:01:46.993Z,52.50
2023-05-08T22:04:19.218Z,51.80
2023-05-08T22:06:49.335Z,50.90
2023-05-08T22:09:19.971Z,50.20
2023-05-08T22:11:50.365Z,49.00
2023-05-08T22:14:20.681Z,49.60
2023-05-08T22:16:50.857Z,49.60
2023-05-08T22:19:22.577Z,50.30
2023-05-08T22:21:55.504Z,52.20
2023-05-08T22:24:26.710Z,50.20
2023-05-08T22:26:56.969Z,48.50
2023-05-08T22:29:27.212Z,50.70
2023-05-08T22:31:57.453Z,50.40
2023-05-08T22:34:29.291Z,52.10
2023-05-08T22:36:59.722Z,50.20
2023-05-08T22:39:30.216Z,52.10
2023-05-08T22:42:00.885Z,51.40
2023-05-08T22:44:31.808Z,50.30
2023-05-08T22:47:02.296Z,50.90
2023-05-08T22:49:34.448Z,50.30
2023-05-08T22:52:04.741Z,50.40
2023-05-08T22:54:34.920Z,51.30
2023-05-08T22:57:06.375Z,51.80
2023-05-08T22:59:36.751Z,51.50
2023-05-08T23:02:07.052Z,50.30
2023-05-08T23:04:39.489Z,50.80
2023-05-08T23:07:10.689Z,51.90
2023-05-08T23:09:40.872Z,52.50
2023-05-08T23:12:11.195Z,51.80
2023-05-08T23:14:41.748Z,50.90
2023-05-08T23:17:14.773Z,48.10
2023-05-08T23:19:46.803Z,49.10
2023-05-08T23:22:17.323Z,51.20
2023-05-08T23:24:48.423Z,50.30
2023-05-08T23:27:21.059Z,51.10
2023-05-08T23:29:51.500Z,50.70
2023-05-08T23:32:21.722Z,50.10
2023-05-08T23:34:54.625Z,50.00
2023-05-08T23:37:24.864Z,52.20
2023-05-08T23:39:54.990Z,52.10
2023-05-08T23:42:25.196Z,51.50
2023-05-08T23:44:55.379Z,53.50
2023-05-08T23:47:25.730Z,52.90
2023-05-08T23:49:57.828Z,53.00
2023-05-08T23:52:28.164Z,52.70
2023-05-08T23:54:58.251Z,53.40
2023-05-08T23:57:28.460Z,53.20
2023-05-08T23:59:58.618Z,52.70
